Terminal Aerodrome Forecast
Issued by NWS

Home | Current Version | Previous Version | Text Only | Print | Product List | Glossary On
Versions: 1 2 3 4 5 6 7 8 9 10 11 12 13 14 15 16 17 18 19 20 21 22 23 24 25 26 27 28 29 30 31 32 33 34 35 36 37 38 39 40 41 42 43
000
FTUS42 KFFC 191122
TAFRYY
TAF
KRYY 191122Z 1912/2012 24003KT 6SM BR VCSH OVC012
     FM191400 26005KT P6SM VCSH BKN025
     FM191800 25006KT P6SM VCSH BKN035 BKN100
     FM192000 25008KT P6SM VCSH SCT040 PROB30 1921/1924 3SM TSRA
      BKN035CB
     FM200800 24004KT P6SM BKN020
     FM201000 24005KT P6SM BKN008=

USA.gov is the U.S. government's official web portal to all federal, state and local government web resources and services.